Time;durP1;ratioP1;P1;durP2;ratioP2;P2;SDS_P1;SDS_P2;PMS_P1;PMS_P2;Temp;Humidity;BMP_temperature;BMP_pressure;BME280_temperature;BME280_humidity;BME280_pressure;Samples;Min_cycle;Max_cycle;Signal;HPM_P1;HPM_P2
2022/12/08 00:01:28;;;;;;;2.50;2.30;;;13.30;57.90;;;;;;5053353;28;20198;-68
2022/12/08 00:03:55;;;;;;;3.00;2.47;;;13.30;57.90;;;;;;5053262;28;20186;-68
2022/12/08 00:09:23;;;;;;;2.55;2.33;;;13.40;57.80;;;;;;5052494;28;20186;-68
2022/12/08 00:11:56;;;;;;;2.45;2.20;;;13.40;57.70;;;;;;5051389;28;20625;-68
2022/12/08 00:14:26;;;;;;;3.80;2.45;;;13.30;57.70;;;;;;5053252;28;20179;-68
2022/12/08 00:16:53;;;;;;;3.67;2.67;;;13.30;57.80;;;;;;5052256;28;20183;-67
2022/12/08 00:19:18;;;;;;;3.03;2.13;;;13.30;57.80;;;;;;5053149;28;20297;-67
2022/12/08 00:21:44;;;;;;;3.40;2.40;;;13.30;57.80;;;;;;5052795;28;20257;-68
2022/12/08 00:24:09;;;;;;;2.47;2.25;;;13.30;57.80;;;;;;5052138;28;20691;-69
2022/12/08 00:26:35;;;;;;;2.42;2.22;;;13.20;57.80;;;;;;5052479;28;20266;-69
2022/12/08 00:29:01;;;;;;;2.33;2.10;;;13.30;57.90;;;;;;5052959;28;20179;-69
2022/12/08 00:31:26;;;;;;;2.33;2.03;;;13.30;57.90;;;;;;5052334;28;20170;-69
2022/12/08 00:33:52;;;;;;;2.00;1.90;;;13.30;58.10;;;;;;5052604;28;20219;-68
2022/12/08 00:36:17;;;;;;;2.40;1.88;;;13.40;57.80;;;;;;5052851;28;20167;-68
2022/12/08 00:38:43;;;;;;;2.42;2.20;;;13.40;57.70;;;;;;5051685;28;20187;-68
2022/12/08 00:44:09;;;;;;;2.25;2.03;;;13.30;57.60;;;;;;5036700;28;20260;-69
2022/12/08 00:46:35;;;;;;;2.40;2.20;;;13.30;57.60;;;;;;5056567;28;20179;-69
2022/12/08 00:49:00;;;;;;;2.60;2.35;;;13.30;57.70;;;;;;5056907;28;20254;-69
2022/12/08 00:51:26;;;;;;;2.15;2.05;;;13.30;57.80;;;;;;5056002;28;20641;-69
2022/12/08 00:53:51;;;;;;;2.63;2.35;;;13.20;57.80;;;;;;5056513;28;20210;-69
2022/12/08 00:56:17;;;;;;;2.50;2.20;;;13.20;57.80;;;;;;5056747;28;20172;-69
2022/12/08 00:58:42;;;;;;;2.60;2.40;;;13.30;57.80;;;;;;5055674;28;20266;-68
2022/12/08 01:01:12;;;;;;;2.25;1.95;;;13.30;58.40;;;;;;5056737;28;20263;-69
2022/12/08 01:03:37;;;;;;;2.35;1.92;;;13.40;57.70;;;;;;5056291;28;20179;-68
2022/12/08 01:06:03;;;;;;;3.03;1.92;;;13.40;57.70;;;;;;5055608;28;20304;-69
2022/12/08 01:08:29;;;;;;;2.40;2.20;;;13.40;57.70;;;;;;5056656;28;20187;-69
2022/12/08 01:10:54;;;;;;;1.90;1.80;;;13.30;57.60;;;;;;5056027;28;20234;-68
2022/12/08 01:13:20;;;;;;;1.95;1.85;;;13.30;57.60;;;;;;5055619;28;20210;-68
2022/12/08 01:15:45;;;;;;;2.47;2.00;;;13.30;57.70;;;;;;5056041;28;20182;-68
2022/12/08 01:18:11;;;;;;;2.78;2.55;;;13.30;57.80;;;;;;5056316;28;20178;-68
2022/12/08 01:20:36;;;;;;;2.85;2.17;;;13.20;58.00;;;;;;5055077;28;20186;-68
2022/12/08 01:23:02;;;;;;;2.15;1.95;;;13.20;57.90;;;;;;5056346;28;20258;-68
2022/12/08 01:25:27;;;;;;;2.20;2.00;;;13.30;58.00;;;;;;5056236;28;20253;-69
2022/12/08 01:27:53;;;;;;;2.33;1.90;;;13.30;57.90;;;;;;5055169;28;20258;-69
2022/12/08 01:30:19;;;;;;;2.25;1.85;;;13.40;57.90;;;;;;5056141;28;20175;-69
2022/12/08 01:32:45;;;;;;;1.85;1.75;;;13.30;57.80;;;;;;5055628;28;20222;-68
2022/12/08 01:35:11;;;;;;;1.80;1.70;;;13.40;57.80;;;;;;5055153;28;20265;-68
2022/12/08 01:37:36;;;;;;;1.98;1.88;;;13.30;57.70;;;;;;5055815;28;20183;-68
2022/12/08 01:40:02;;;;;;;2.38;1.77;;;13.30;57.80;;;;;;5055213;28;20197;-68
2022/12/08 01:42:29;;;;;;;1.70;1.60;;;13.30;57.90;;;;;;5056002;28;20221;-69
2022/12/08 01:44:57;;;;;;;2.08;1.70;;;13.30;57.80;;;;;;5055614;28;20171;-69
2022/12/08 01:47:24;;;;;;;1.85;1.70;;;13.30;58.00;;;;;;5055091;28;20179;-70
2022/12/08 01:49:49;;;;;;;1.85;1.40;;;13.30;58.00;;;;;;5054195;28;20183;-69
2022/12/08 01:52:30;;;;;;;1.63;1.40;;;13.20;58.00;;;;;;5053148;28;20207;-69
2022/12/08 01:55:15;;;;;;;1.55;1.45;;;13.30;58.00;;;;;;5054840;28;20660;-68
2022/12/08 01:57:52;;;;;;;1.63;1.52;;;13.30;57.90;;;;;;5054275;28;20266;-68
2022/12/08 02:00:21;;;;;;;1.63;1.48;;;13.40;57.80;;;;;;5054275;28;20683;-68
2022/12/08 02:02:58;;;;;;;1.70;1.58;;;13.40;57.80;;;;;;5054649;28;20183;-68
2022/12/08 02:05:26;;;;;;;2.80;1.95;;;13.40;57.70;;;;;;5054383;28;20179;-69
2022/12/08 02:07:51;;;;;;;1.77;1.67;;;13.30;57.70;;;;;;5055086;28;20595;-68
2022/12/08 02:10:19;;;;;;;2.03;1.85;;;13.30;57.70;;;;;;5053168;28;20219;-69
2022/12/08 02:12:45;;;;;;;1.60;1.50;;;13.30;57.80;;;;;;5054729;28;20223;-68
2022/12/08 02:15:10;;;;;;;2.05;1.85;;;13.30;57.90;;;;;;5054382;28;20197;-68
2022/12/08 02:18:05;;;;;;;1.90;1.70;;;13.20;58.00;;;;;;5053875;28;20228;-68
2022/12/08 02:20:55;;;;;;;2.22;1.60;;;13.20;57.90;;;;;;5049849;28;20368;-67
2022/12/08 02:23:59;;;;;;;2.55;1.88;;;13.20;58.00;;;;;;5053378;28;20696;-68
2022/12/08 02:26:45;;;;;;;2.58;1.60;;;13.30;57.90;;;;;;5048345;28;20582;-69
2022/12/08 02:29:25;;;;;;;2.15;1.95;;;13.30;57.80;;;;;;5054720;28;20175;-68
2022/12/08 02:32:10;;;;;;;3.22;2.05;;;13.40;57.80;;;;;;5053631;28;20193;-68
2022/12/08 02:35:01;;;;;;;1.70;1.60;;;13.40;57.90;;;;;;5053604;28;20190;-68
2022/12/08 02:37:32;;;;;;;2.42;2.22;;;13.30;57.80;;;;;;5052968;28;20177;-68
2022/12/08 02:40:01;;;;;;;1.90;1.70;;;13.30;57.80;;;;;;5053491;28;20621;-68
2022/12/08 02:42:37;;;;;;;2.28;2.08;;;13.30;58.00;;;;;;5054807;28;20218;-68
2022/12/08 02:45:13;;;;;;;2.10;1.92;;;13.30;58.10;;;;;;5052885;28;20178;-69
2022/12/08 02:47:38;;;;;;;1.90;1.80;;;13.30;58.00;;;;;;5054411;28;20171;-69
2022/12/08 02:50:05;;;;;;;2.38;1.83;;;13.20;58.00;;;;;;5053274;28;20175;-69
2022/12/08 02:52:30;;;;;;;3.10;1.67;;;13.30;58.00;;;;;;5053427;28;20290;-69
2022/12/08 02:55:08;;;;;;;2.08;1.88;;;13.30;57.90;;;;;;5054627;28;20207;-68
2022/12/08 02:57:49;;;;;;;1.83;1.73;;;13.40;57.90;;;;;;5052393;28;20179;-68
2022/12/08 03:00:16;;;;;;;2.17;1.77;;;13.30;57.80;;;;;;5054503;28;20186;-68
2022/12/08 03:02:45;;;;;;;2.15;1.85;;;13.40;57.90;;;;;;5052753;28;20190;-68
2022/12/08 03:05:22;;;;;;;1.90;1.80;;;13.30;57.80;;;;;;5052318;28;20634;-68
2022/12/08 03:08:07;;;;;;;2.00;1.90;;;13.30;58.00;;;;;;5052915;28;20633;-68
2022/12/08 03:10:34;;;;;;;2.10;2.00;;;13.30;58.00;;;;;;5052723;28;20246;-68
2022/12/08 03:13:21;;;;;;;2.10;1.70;;;13.30;58.00;;;;;;5053201;28;20210;-68
2022/12/08 03:15:48;;;;;;;1.98;1.65;;;13.20;58.00;;;;;;5052564;28;20167;-68
2022/12/08 03:18:14;;;;;;;2.28;2.10;;;13.20;58.00;;;;;;5052802;28;20190;-68
2022/12/08 03:20:40;;;;;;;1.88;1.75;;;13.30;58.00;;;;;;5051833;28;20255;-68
2022/12/08 03:23:08;;;;;;;1.63;1.52;;;13.30;58.00;;;;;;5052632;28;20664;-68
2022/12/08 03:25:36;;;;;;;1.83;1.70;;;13.40;57.90;;;;;;5051816;28;20171;-68
2022/12/08 03:28:02;;;;;;;1.60;1.50;;;13.40;57.90;;;;;;5052584;28;20630;-69
2022/12/08 03:30:28;;;;;;;1.70;1.60;;;13.40;57.80;;;;;;5052601;28;20175;-69
2022/12/08 03:33:00;;;;;;;3.78;1.60;;;13.30;57.80;;;;;;5051593;28;20210;-68
2022/12/08 03:35:28;;;;;;;2.15;1.65;;;13.30;57.80;;;;;;5052561;28;20363;-68
2022/12/08 03:38:06;;;;;;;1.90;1.80;;;13.30;57.90;;;;;;5052185;28;20257;-67
2022/12/08 03:40:31;;;;;;;1.98;1.80;;;13.30;57.90;;;;;;5052781;28;20222;-68
2022/12/08 03:42:57;;;;;;;1.92;1.83;;;13.20;57.90;;;;;;5052454;28;20664;-69
2022/12/08 03:45:22;;;;;;;1.98;1.88;;;13.20;58.00;;;;;;5053498;28;20167;-69
2022/12/08 03:47:48;;;;;;;2.17;1.77;;;13.30;58.00;;;;;;5052551;28;20183;-69
2022/12/08 03:50:13;;;;;;;1.48;1.38;;;13.30;58.00;;;;;;5053444;28;20183;-69
2022/12/08 03:52:39;;;;;;;2.15;1.60;;;13.30;57.90;;;;;;5053132;28;20199;-68
2022/12/08 03:55:05;;;;;;;1.60;1.50;;;13.40;57.90;;;;;;5052855;28;20186;-68
2022/12/08 03:57:30;;;;;;;1.58;1.48;;;13.40;57.90;;;;;;5053145;28;20755;-68
2022/12/08 03:59:56;;;;;;;1.80;1.65;;;13.40;57.90;;;;;;5053373;28;20266;-68
2022/12/08 04:02:21;;;;;;;1.67;1.58;;;13.40;57.90;;;;;;5052714;28;20534;-68
2022/12/08 04:04:47;;;;;;;2.25;1.70;;;13.30;57.80;;;;;;5052910;28;20269;-69
2022/12/08 04:07:12;;;;;;;1.38;1.27;;;13.30;57.90;;;;;;5053301;28;20258;-68
2022/12/08 04:09:40;;;;;;;3.38;1.83;;;13.30;58.00;;;;;;5052298;28;20261;-68
2022/12/08 04:12:06;;;;;;;1.70;1.60;;;13.30;58.00;;;;;;5052825;28;20266;-68
2022/12/08 04:14:32;;;;;;;2.05;1.88;;;13.20;58.00;;;;;;5052237;28;20211;-67
2022/12/08 04:16:57;;;;;;;1.55;1.45;;;13.30;58.00;;;;;;5052412;28;20203;-68
2022/12/08 04:19:23;;;;;;;1.65;1.48;;;13.30;57.90;;;;;;5052985;28;20214;-68
2022/12/08 04:21:48;;;;;;;3.00;1.50;;;13.30;57.90;;;;;;5052133;28;20182;-68
2022/12/08 04:24:14;;;;;;;1.98;1.52;;;13.40;57.90;;;;;;5053108;28;20179;-68
2022/12/08 04:26:39;;;;;;;1.45;1.33;;;13.40;57.90;;;;;;5052809;28;20198;-68
2022/12/08 04:29:05;;;;;;;1.75;1.30;;;13.40;57.90;;;;;;5052179;28;20873;-69
2022/12/08 04:31:30;;;;;;;1.50;1.40;;;13.40;57.90;;;;;;5052813;28;20638;-68
2022/12/08 04:33:56;;;;;;;1.45;1.20;;;13.30;58.00;;;;;;5052733;28;20219;-68
2022/12/08 04:36:21;;;;;;;1.40;1.30;;;13.30;58.00;;;;;;5052044;28;20193;-68
2022/12/08 04:38:47;;;;;;;1.48;1.38;;;13.30;58.00;;;;;;5052704;28;20209;-68
2022/12/08 04:41:12;;;;;;;1.45;1.30;;;13.30;58.80;;;;;;5053020;28;20170;-68
2022/12/08 04:43:38;;;;;;;1.65;1.55;;;13.20;58.10;;;;;;5051782;28;20182;-69
2022/12/08 04:46:07;;;;;;;1.45;1.20;;;13.30;58.00;;;;;;5052892;28;20175;-69
2022/12/08 04:48:33;;;;;;;1.30;1.20;;;13.30;58.00;;;;;;5052517;28;20179;-69
2022/12/08 04:50:58;;;;;;;0.95;0.90;;;13.40;58.00;;;;;;5051942;28;20752;-68
2022/12/08 04:53:25;;;;;;;1.25;1.20;;;13.40;57.90;;;;;;5052543;28;20602;-69
2022/12/08 04:55:51;;;;;;;1.27;1.17;;;13.40;57.90;;;;;;5052296;28;20190;-68
2022/12/08 04:58:17;;;;;;;1.00;1.00;;;13.40;58.00;;;;;;5052021;28;20171;-68
2022/12/08 05:00:43;;;;;;;1.25;1.02;;;13.30;57.90;;;;;;5052370;28;20176;-68
2022/12/08 05:03:08;;;;;;;1.13;1.02;;;13.30;58.10;;;;;;5052577;28;20178;-69
2022/12/08 05:05:34;;;;;;;1.42;0.93;;;13.30;58.00;;;;;;5051389;28;20171;-68
2022/12/08 05:07:59;;;;;;;1.58;0.98;;;13.30;58.10;;;;;;5052687;28;20183;-68
2022/12/08 05:10:25;;;;;;;0.80;0.80;;;13.30;58.20;;;;;;5052506;28;20250;-69
2022/12/08 05:12:50;;;;;;;0.80;0.80;;;13.20;58.10;;;;;;5051572;28;20301;-67
2022/12/08 05:15:16;;;;;;;1.52;1.10;;;13.30;58.10;;;;;;5052571;28;20582;-68
2022/12/08 05:17:41;;;;;;;1.33;0.85;;;13.30;58.10;;;;;;5052027;28;20198;-67
2022/12/08 05:20:07;;;;;;;0.90;0.90;;;13.40;58.00;;;;;;5051563;28;20262;-68
2022/12/08 05:22:33;;;;;;;0.80;0.80;;;13.40;58.00;;;;;;5052263;28;20214;-68
2022/12/08 05:24:58;;;;;;;1.13;0.70;;;13.40;57.90;;;;;;5052451;28;20275;-69
2022/12/08 05:27:24;;;;;;;0.88;0.80;;;13.40;57.90;;;;;;5054674;28;20182;-69
2022/12/08 05:29:49;;;;;;;0.80;0.80;;;13.30;57.90;;;;;;5055786;28;20179;-68
2022/12/08 05:32:15;;;;;;;1.23;0.98;;;13.30;58.00;;;;;;5055586;28;20202;-67
2022/12/08 05:34:41;;;;;;;1.00;1.00;;;13.30;58.00;;;;;;5055516;28;20214;-68
2022/12/08 05:37:06;;;;;;;0.85;0.85;;;13.30;58.00;;;;;;5056126;28;20257;-67
2022/12/08 05:39:32;;;;;;;0.98;0.80;;;13.20;58.00;;;;;;5055010;28;20175;-68
2022/12/08 05:41:58;;;;;;;0.88;0.88;;;13.20;58.00;;;;;;5056151;28;20171;-67
2022/12/08 05:44:24;;;;;;;0.70;0.70;;;13.30;58.00;;;;;;5055880;28;20179;-68
2022/12/08 05:46:49;;;;;;;1.10;0.90;;;13.40;58.00;;;;;;5054897;28;20174;-68
2022/12/08 05:49:15;;;;;;;1.08;0.93;;;13.30;58.20;;;;;;5055721;28;20197;-68
2022/12/08 05:51:40;;;;;;;0.82;0.82;;;13.40;57.90;;;;;;5055571;28;20178;-68
2022/12/08 05:54:06;;;;;;;1.30;0.80;;;13.40;57.90;;;;;;5054959;28;20284;-68
2022/12/08 05:56:31;;;;;;;1.90;1.23;;;13.30;57.80;;;;;;5055206;28;20630;-68
2022/12/08 05:58:57;;;;;;;1.08;0.90;;;13.40;57.90;;;;;;5055453;28;20179;-68
2022/12/08 06:01:24;;;;;;;1.05;1.05;;;13.30;57.90;;;;;;5054827;28;20175;-68
2022/12/08 06:03:51;;;;;;;0.88;0.88;;;13.30;58.00;;;;;;5055060;28;20685;-68
2022/12/08 06:06:16;;;;;;;0.80;0.80;;;13.30;58.00;;;;;;5055562;28;20178;-68
2022/12/08 06:08:42;;;;;;;0.85;0.85;;;13.30;58.20;;;;;;5054432;28;20179;-68
2022/12/08 06:11:07;;;;;;;0.60;0.60;;;13.30;58.20;;;;;;5055211;28;20215;-68
2022/12/08 06:13:33;;;;;;;1.42;0.75;;;13.30;58.10;;;;;;5054827;28;20207;-67
2022/12/08 06:16:05;;;;;;;1.10;0.80;;;13.40;58.00;;;;;;5054482;28;20197;-67
2022/12/08 06:18:31;;;;;;;0.63;0.63;;;13.40;58.00;;;;;;5054725;28;20228;-67
2022/12/08 06:21:06;;;;;;;0.65;0.57;;;13.40;57.90;;;;;;5054976;28;20262;-67
2022/12/08 06:23:32;;;;;;;1.13;0.63;;;13.40;57.90;;;;;;5053925;28;20617;-68
2022/12/08 06:26:02;;;;;;;0.68;0.68;;;13.40;57.90;;;;;;5054902;28;20177;-68
2022/12/08 06:28:28;;;;;;;1.20;0.63;;;13.30;58.00;;;;;;5054155;28;20266;-68
2022/12/08 06:30:54;;;;;;;1.00;0.80;;;13.30;58.10;;;;;;5054581;28;20179;-68
2022/12/08 06:33:19;;;;;;;0.60;0.60;;;13.30;58.00;;;;;;5054882;28;20207;-67
2022/12/08 06:35:45;;;;;;;0.75;0.60;;;13.20;58.70;;;;;;5053975;28;20178;-67
2022/12/08 06:38:10;;;;;;;0.73;0.65;;;13.30;58.10;;;;;;5054310;28;20227;-67
2022/12/08 06:40:36;;;;;;;0.88;0.68;;;13.30;58.00;;;;;;5054476;28;20175;-67
2022/12/08 06:43:01;;;;;;;0.68;0.68;;;13.30;58.00;;;;;;5053888;28;20175;-68
2022/12/08 06:45:27;;;;;;;1.33;0.82;;;13.40;58.00;;;;;;5054701;28;20622;-67
2022/12/08 06:47:52;;;;;;;0.73;0.63;;;13.40;57.90;;;;;;5054252;28;20171;-68
2022/12/08 06:50:18;;;;;;;0.68;0.60;;;13.40;57.90;;;;;;5053994;28;20179;-68
2022/12/08 06:52:45;;;;;;;0.70;0.70;;;13.40;57.90;;;;;;5054198;28;20665;-67
2022/12/08 06:55:10;;;;;;;0.70;0.63;;;13.30;57.90;;;;;;5054637;28;20175;-67
2022/12/08 06:57:36;;;;;;;0.60;0.60;;;13.30;57.90;;;;;;5053400;28;20179;-67
2022/12/08 07:00:02;;;;;;;0.47;0.47;;;13.30;58.00;;;;;;5054305;28;20218;-68
2022/12/08 07:02:28;;;;;;;0.60;0.60;;;13.30;58.10;;;;;;5054527;28;20256;-67
2022/12/08 07:04:53;;;;;;;0.47;0.40;;;13.20;58.00;;;;;;5053183;28;20625;-67
2022/12/08 07:07:20;;;;;;;0.50;0.50;;;13.30;58.00;;;;;;5054122;28;20171;-68
2022/12/08 07:09:45;;;;;;;0.50;0.50;;;13.30;58.00;;;;;;5053910;28;20297;-67
2022/12/08 07:12:11;;;;;;;0.57;0.50;;;13.30;57.90;;;;;;5053152;28;20314;-68
2022/12/08 07:14:36;;;;;;;0.57;0.57;;;13.40;58.00;;;;;;5053719;28;20175;-67
2022/12/08 07:17:02;;;;;;;0.47;0.45;;;13.40;57.90;;;;;;5053905;28;20182;-67
2022/12/08 07:19:27;;;;;;;0.73;0.60;;;13.40;57.80;;;;;;5053500;28;20179;-68
2022/12/08 07:21:53;;;;;;;0.98;0.70;;;13.40;57.90;;;;;;5053823;28;20171;-68
2022/12/08 07:24:18;;;;;;;0.65;0.65;;;13.30;57.80;;;;;;5053975;28;20172;-69
2022/12/08 07:26:44;;;;;;;0.50;0.50;;;13.30;57.80;;;;;;5052864;28;20179;-69
2022/12/08 07:29:10;;;;;;;0.60;0.52;;;13.30;57.90;;;;;;5053699;28;20178;-69
2022/12/08 07:31:35;;;;;;;1.17;0.50;;;13.30;58.00;;;;;;5053383;28;20182;-69
2022/12/08 07:34:01;;;;;;;0.65;0.52;;;13.30;57.90;;;;;;5053093;28;20207;-68
2022/12/08 07:36:26;;;;;;;0.57;0.40;;;13.30;57.90;;;;;;5053682;28;20544;-68
2022/12/08 07:38:52;;;;;;;0.63;0.60;;;13.30;57.80;;;;;;5052662;28;20650;-67
2022/12/08 07:41:21;;;;;;;0.85;0.55;;;13.30;57.80;;;;;;5053602;28;20179;-68
2022/12/08 07:43:46;;;;;;;0.60;0.60;;;13.40;57.80;;;;;;5053053;28;20262;-68
2022/12/08 07:46:13;;;;;;;0.47;0.47;;;13.40;57.80;;;;;;5052686;28;20258;-68
2022/12/08 07:48:38;;;;;;;0.95;0.70;;;13.30;57.60;;;;;;5053330;28;20234;-69
2022/12/08 07:51:04;;;;;;;0.90;0.55;;;13.40;57.70;;;;;;5052515;28;20637;-69
2022/12/08 07:53:30;;;;;;;0.60;0.60;;;13.30;57.70;;;;;;5052536;28;20712;-69
2022/12/08 07:55:55;;;;;;;1.15;0.80;;;13.30;57.80;;;;;;5053300;28;20225;-68
2022/12/08 07:58:21;;;;;;;1.67;0.75;;;13.30;57.80;;;;;;5053235;28;20182;-68
2022/12/08 08:00:46;;;;;;;0.60;0.60;;;13.20;57.80;;;;;;5052365;28;20309;-68
2022/12/08 08:03:12;;;;;;;0.63;0.52;;;13.20;57.80;;;;;;5053289;28;20258;-68
2022/12/08 08:05:37;;;;;;;0.52;0.52;;;13.30;57.90;;;;;;5052895;28;20607;-69
2022/12/08 08:08:03;;;;;;;0.50;0.50;;;13.30;57.80;;;;;;5052405;28;20690;-68
2022/12/08 08:10:28;;;;;;;0.50;0.50;;;13.30;57.80;;;;;;5053034;28;20693;-69
2022/12/08 08:12:57;;;;;;;0.50;0.50;;;13.40;57.80;;;;;;5052734;28;20233;-68
2022/12/08 08:15:23;;;;;;;0.88;0.60;;;13.40;57.70;;;;;;5052134;28;20178;-68
2022/12/08 08:17:50;;;;;;;0.75;0.75;;;13.40;57.70;;;;;;5052868;28;20175;-68
2022/12/08 08:20:15;;;;;;;0.50;0.50;;;13.30;57.60;;;;;;5052893;28;20226;-68
2022/12/08 08:22:41;;;;;;;0.70;0.70;;;13.30;57.70;;;;;;5051967;28;20183;-68
2022/12/08 08:25:07;;;;;;;0.70;0.70;;;13.30;57.80;;;;;;5052887;28;20167;-69
2022/12/08 08:27:33;;;;;;;0.60;0.60;;;13.30;57.80;;;;;;5052417;28;20236;-69
2022/12/08 08:29:58;;;;;;;0.57;0.57;;;13.20;57.80;;;;;;5052142;28;20190;-69
2022/12/08 08:32:27;;;;;;;0.57;0.57;;;13.30;57.80;;;;;;5052912;28;20730;-68
2022/12/08 08:34:52;;;;;;;0.70;0.70;;;13.30;57.80;;;;;;5052621;28;20178;-68
2022/12/08 08:37:18;;;;;;;0.98;0.65;;;13.30;57.80;;;;;;5052246;28;20175;-68
2022/12/08 08:39:43;;;;;;;0.60;0.60;;;13.40;57.80;;;;;;5052522;28;20262;-69
2022/12/08 08:42:09;;;;;;;0.40;0.40;;;13.40;57.70;;;;;;5052002;28;20257;-69
2022/12/08 08:44:36;;;;;;;0.90;0.80;;;13.40;57.70;;;;;;5052655;28;20174;-69
2022/12/08 08:47:01;;;;;;;0.50;0.50;;;13.40;57.70;;;;;;5052861;28;20171;-69
2022/12/08 08:49:27;;;;;;;0.57;0.57;;;13.40;57.70;;;;;;5051868;28;20171;-70
2022/12/08 08:51:52;;;;;;;0.70;0.70;;;13.40;57.60;;;;;;5052202;28;20207;-69
2022/12/08 08:54:18;;;;;;;0.95;0.95;;;13.30;57.60;;;;;;5052506;28;20306;-69
2022/12/08 08:56:43;;;;;;;0.70;0.70;;;13.30;57.70;;;;;;5051629;28;20274;-69
2022/12/08 08:59:09;;;;;;;0.50;0.50;;;13.30;57.80;;;;;;5052780;28;20266;-68
2022/12/08 09:01:34;;;;;;;0.57;0.57;;;13.30;57.80;;;;;;5053068;28;20285;-68
2022/12/08 09:04:00;;;;;;;0.70;0.60;;;13.30;57.70;;;;;;5055951;28;20167;-69
2022/12/08 09:06:27;;;;;;;0.60;0.60;;;13.40;57.80;;;;;;5056545;28;20508;-68
2022/12/08 09:08:52;;;;;;;0.50;0.50;;;13.40;57.70;;;;;;5056221;28;20262;-68
2022/12/08 09:11:18;;;;;;;0.60;0.60;;;13.40;57.70;;;;;;5055471;28;20309;-69
2022/12/08 09:13:46;;;;;;;0.55;0.55;;;13.40;57.60;;;;;;5056167;28;20249;-68
2022/12/08 09:16:11;;;;;;;0.65;0.65;;;13.40;57.60;;;;;;5056240;28;20526;-68
2022/12/08 09:18:37;;;;;;;0.50;0.50;;;13.40;57.70;;;;;;5055117;28;20258;-68
2022/12/08 09:21:07;;;;;;;0.60;0.60;;;13.30;57.60;;;;;;5056249;28;20175;-68
2022/12/08 09:23:33;;;;;;;0.90;0.65;;;13.30;57.60;;;;;;5055995;28;20186;-69
2022/12/08 09:25:59;;;;;;;1.17;0.88;;;13.30;57.80;;;;;;5055334;28;20175;-70
2022/12/08 09:28:24;;;;;;;0.63;0.63;;;13.30;57.80;;;;;;5056261;28;20186;-69
2022/12/08 09:30:50;;;;;;;0.60;0.55;;;13.30;57.70;;;;;;5055922;28;20175;-69
2022/12/08 09:33:16;;;;;;;0.50;0.50;;;13.40;57.80;;;;;;5055115;28;20219;-68
2022/12/08 09:35:41;;;;;;;0.85;0.70;;;13.40;57.70;;;;;;5055623;28;20187;-69
2022/12/08 09:38:07;;;;;;;0.85;0.73;;;13.40;57.70;;;;;;5055983;28;20258;-68
2022/12/08 09:40:36;;;;;;;0.60;0.60;;;13.40;57.70;;;;;;5054845;28;20179;-69
2022/12/08 09:43:24;;;;;;;0.77;0.77;;;13.40;57.60;;;;;;5054933;28;20179;-69
2022/12/08 09:45:50;;;;;;;1.35;0.60;;;13.40;57.60;;;;;;5051495;28;20183;-69
2022/12/08 09:48:27;;;;;;;1.48;0.70;;;13.40;57.70;;;;;;5054543;28;20645;-69
2022/12/08 09:50:56;;;;;;;1.08;0.65;;;13.40;57.80;;;;;;5054194;28;20202;-69
2022/12/08 09:53:54;;;;;;;0.70;0.70;;;13.30;57.90;;;;;;5055104;28;20203;-69
2022/12/08 09:56:25;;;;;;;0.60;0.60;;;13.30;57.90;;;;;;5054030;28;20187;-68
2022/12/08 09:59:15;;;;;;;1.10;1.00;;;13.30;57.90;;;;;;5054149;28;20729;-68
2022/12/08 10:01:40;;;;;;;0.50;0.50;;;13.30;57.90;;;;;;5053505;28;20253;-68
2022/12/08 10:04:31;;;;;;;0.70;0.70;;;13.40;57.90;;;;;;5055308;28;20206;-69
2022/12/08 10:07:17;;;;;;;0.82;0.60;;;13.40;57.80;;;;;;5054715;28;20175;-68
2022/12/08 10:10:13;;;;;;;0.60;0.60;;;13.40;57.70;;;;;;5054901;28;20258;-69
2022/12/08 10:12:56;;;;;;;1.00;0.82;;;13.40;57.70;;;;;;5053065;28;20305;-68
2022/12/08 10:15:52;;;;;;;0.70;0.70;;;13.40;57.70;;;;;;5054532;28;20206;-67
2022/12/08 10:18:26;;;;;;;0.80;0.80;;;13.40;57.80;;;;;;5055228;28;20198;-68
2022/12/08 10:20:51;;;;;;;0.70;0.70;;;13.30;57.70;;;;;;5053079;28;20309;-68
2022/12/08 10:23:22;;;;;;;1.10;1.00;;;13.30;57.70;;;;;;5055114;28;20246;-68
2022/12/08 10:26:00;;;;;;;0.70;0.70;;;13.30;57.80;;;;;;5054812;28;20553;-69
2022/12/08 10:28:25;;;;;;;0.90;0.80;;;13.30;57.80;;;;;;5054435;28;20194;-69
2022/12/08 10:30:51;;;;;;;0.80;0.80;;;13.30;57.70;;;;;;5054721;28;20625;-68
2022/12/08 10:33:18;;;;;;;0.80;0.80;;;13.40;57.70;;;;;;5054910;28;20687;-68
2022/12/08 10:36:01;;;;;;;1.02;0.80;;;13.40;57.70;;;;;;5054088;28;20171;-68
2022/12/08 10:38:31;;;;;;;2.15;0.95;;;13.40;57.60;;;;;;5053781;28;20179;-68
2022/12/08 10:41:11;;;;;;;0.82;0.82;;;13.40;57.60;;;;;;5054744;28;20186;-68
2022/12/08 10:43:43;;;;;;;0.90;0.75;;;13.40;57.60;;;;;;5052849;28;20198;-68
2022/12/08 10:46:25;;;;;;;0.80;0.80;;;13.40;57.70;;;;;;5053834;28;20163;-69
2022/12/08 10:49:10;;;;;;;0.88;0.80;;;13.30;57.60;;;;;;5053641;28;20324;-69
2022/12/08 10:51:37;;;;;;;0.80;0.80;;;13.30;57.60;;;;;;5054478;28;20372;-68
2022/12/08 10:54:04;;;;;;;0.60;0.60;;;13.30;57.60;;;;;;5054562;28;20221;-68
2022/12/08 10:56:30;;;;;;;0.80;0.80;;;13.30;57.70;;;;;;5053891;28;20183;-68
2022/12/08 10:59:14;;;;;;;0.60;0.50;;;13.30;57.70;;;;;;5054650;28;20179;-68
2022/12/08 11:01:39;;;;;;;0.70;0.70;;;13.30;57.70;;;;;;5053029;28;20175;-69
2022/12/08 11:04:16;;;;;;;0.60;0.60;;;13.40;57.70;;;;;;5053627;28;20673;-68
2022/12/08 11:06:42;;;;;;;0.70;0.70;;;13.40;57.60;;;;;;5053090;28;20185;-68
2022/12/08 11:09:17;;;;;;;0.70;0.70;;;13.40;57.60;;;;;;5054388;28;20167;-69
2022/12/08 11:11:56;;;;;;;0.85;0.85;;;13.40;57.80;;;;;;5053076;28;20229;-68
2022/12/08 11:14:30;;;;;;;0.98;0.88;;;13.40;57.90;;;;;;5053992;28;20237;-68
2022/12/08 11:17:06;;;;;;;0.60;0.60;;;13.30;57.90;;;;;;5052282;28;20175;-68
2022/12/08 11:19:32;;;;;;;0.80;0.80;;;13.30;57.80;;;;;;5052719;28;20258;-68
2022/12/08 11:21:57;;;;;;;0.63;0.63;;;13.30;58.00;;;;;;5052800;28;20587;-68
2022/12/08 11:24:24;;;;;;;0.70;0.70;;;13.30;58.00;;;;;;5053205;28;20171;-69
2022/12/08 11:26:52;;;;;;;0.80;0.80;;;13.30;57.80;;;;;;5053598;28;20759;-68
2022/12/08 11:29:18;;;;;;;0.90;0.90;;;13.30;57.80;;;;;;5052670;28;20215;-69
2022/12/08 11:31:56;;;;;;;0.85;0.85;;;13.30;57.80;;;;;;5051636;28;20264;-68
2022/12/08 11:34:39;;;;;;;0.70;0.70;;;13.30;57.70;;;;;;5052458;28;20571;-68
2022/12/08 11:37:05;;;;;;;0.50;0.50;;;13.40;57.90;;;;;;5052626;28;20179;-68
2022/12/08 11:39:32;;;;;;;0.80;0.80;;;13.30;57.80;;;;;;5051601;28;20179;-68
2022/12/08 11:41:58;;;;;;;0.65;0.65;;;13.30;57.80;;;;;;5054021;28;20228;-68
2022/12/08 11:44:34;;;;;;;0.75;0.73;;;13.30;57.80;;;;;;5052491;28;20261;-69
2022/12/08 11:47:15;;;;;;;0.70;0.70;;;13.30;57.80;;;;;;5052727;28;20183;-69
2022/12/08 11:49:41;;;;;;;0.80;0.80;;;13.30;57.80;;;;;;5051926;28;20301;-69
2022/12/08 11:52:16;;;;;;;1.75;0.82;;;13.30;58.00;;;;;;5052533;28;20262;-69
2022/12/08 11:54:46;;;;;;;0.70;0.70;;;13.20;57.90;;;;;;5052030;28;20601;-69
2022/12/08 11:57:15;;;;;;;1.08;0.90;;;13.20;58.00;;;;;;5052392;28;20224;-68
2022/12/08 11:59:45;;;;;;;1.10;1.00;;;13.30;57.90;;;;;;5052377;28;20229;-68
2022/12/08 12:02:20;;;;;;;0.70;0.70;;;13.30;57.80;;;;;;5051965;28;20186;-68
2022/12/08 12:04:48;;;;;;;1.00;1.00;;;13.30;57.70;;;;;;5051921;28;20266;-68
2022/12/08 12:07:55;;;;;;;1.10;1.00;;;13.30;57.80;;;;;;5051417;28;20175;-69
2022/12/08 12:10:37;;;;;;;0.70;0.70;;;13.30;57.80;;;;;;5030696;28;20250;-68
2022/12/08 12:13:19;;;;;;;0.70;0.70;;;13.30;57.80;;;;;;5013764;28;20219;-68
2022/12/08 12:16:22;;;;;;;0.85;0.85;;;13.30;57.80;;;;;;5024770;28;20222;-67
2022/12/08 12:18:50;;;;;;;0.80;0.80;;;13.30;57.80;;;;;;5052694;28;20175;-67
2022/12/08 12:21:21;;;;;;;1.17;0.88;;;13.30;57.80;;;;;;5052186;28;20617;-68
2022/12/08 12:23:58;;;;;;;0.85;0.85;;;13.20;57.70;;;;;;5051625;28;20177;-69
2022/12/08 12:26:25;;;;;;;1.73;0.90;;;13.30;57.80;;;;;;5051731;28;20551;-70
2022/12/08 12:29:17;;;;;;;0.80;0.80;;;13.30;57.80;;;;;;5050803;28;20563;-69
2022/12/08 12:31:47;;;;;;;0.90;0.90;;;13.30;57.80;;;;;;5051544;28;20179;-69
2022/12/08 12:34:24;;;;;;;0.80;0.80;;;13.30;57.90;;;;;;5051065;28;20225;-68
2022/12/08 12:36:53;;;;;;;0.75;0.75;;;13.30;57.80;;;;;;5050851;28;20189;-68
2022/12/08 12:39:20;;;;;;;0.98;0.75;;;13.30;57.80;;;;;;5052715;28;20638;-69
2022/12/08 12:41:54;;;;;;;1.40;1.13;;;13.30;57.80;;;;;;5050575;28;20302;-69
2022/12/08 12:44:23;;;;;;;0.85;0.85;;;13.30;57.70;;;;;;5052019;28;20179;-69
2022/12/08 12:46:48;;;;;;;0.68;0.68;;;13.30;57.80;;;;;;5052492;28;20189;-69
2022/12/08 12:49:42;;;;;;;0.65;0.65;;;13.30;57.80;;;;;;5052270;28;20175;-70
2022/12/08 12:52:13;;;;;;;0.82;0.82;;;13.30;57.80;;;;;;5052499;28;20174;-69
2022/12/08 12:54:41;;;;;;;0.80;0.80;;;13.30;57.80;;;;;;5052239;28;20181;-69
2022/12/08 12:57:10;;;;;;;0.73;0.73;;;13.30;57.80;;;;;;5051978;28;20187;-68
2022/12/08 12:59:46;;;;;;;1.30;1.13;;;13.30;57.80;;;;;;5052250;28;20674;-68
2022/12/08 13:02:22;;;;;;;0.85;0.85;;;13.40;57.70;;;;;;5052348;28;20182;-68
2022/12/08 13:05:06;;;;;;;1.27;0.93;;;13.40;57.60;;;;;;5050998;28;20174;-68